sensor_id;sensor_type;location;lat;lon;timestamp;P1;durP1;ratioP1;P2;durP2;ratioP2
64457;SDS011;58438;51.200;7.252;2023-02-02T00:02:03;16.20;;;6.00;;
64457;SDS011;58438;51.200;7.252;2023-02-02T00:04:50;15.43;;;5.03;;
64457;SDS011;58438;51.200;7.252;2023-02-02T00:07:38;17.75;;;5.60;;
64457;SDS011;58438;51.200;7.252;2023-02-02T00:10:26;12.48;;;5.55;;
64457;SDS011;58438;51.200;7.252;2023-02-02T00:13:15;17.63;;;6.63;;
64457;SDS011;58438;51.200;7.252;2023-02-02T00:19:21;17.42;;;5.28;;
64457;SDS011;58438;51.200;7.252;2023-02-02T00:22:11;20.45;;;6.13;;
64457;SDS011;58438;51.200;7.252;2023-02-02T00:24:58;19.55;;;5.38;;
64457;SDS011;58438;51.200;7.252;2023-02-02T00:27:45;11.55;;;4.70;;
64457;SDS011;58438;51.200;7.252;2023-02-02T00:30:34;17.20;;;6.68;;
64457;SDS011;58438;51.200;7.252;2023-02-02T00:33:21;13.20;;;5.72;;
64457;SDS011;58438;51.200;7.252;2023-02-02T00:36:09;13.73;;;5.68;;
64457;SDS011;58438;51.200;7.252;2023-02-02T00:38:57;18.67;;;7.05;;
64457;SDS011;58438;51.200;7.252;2023-02-02T00:41:44;15.50;;;6.25;;
64457;SDS011;58438;51.200;7.252;2023-02-02T00:44:32;19.88;;;6.40;;
64457;SDS011;58438;51.200;7.252;2023-02-02T00:47:38;14.18;;;5.40;;
64457;SDS011;58438;51.200;7.252;2023-02-02T00:50:26;16.95;;;7.50;;
64457;SDS011;58438;51.200;7.252;2023-02-02T00:53:14;16.38;;;7.07;;
64457;SDS011;58438;51.200;7.252;2023-02-02T00:56:01;20.27;;;7.20;;
64457;SDS011;58438;51.200;7.252;2023-02-02T00:58:49;21.00;;;7.38;;
64457;SDS011;58438;51.200;7.252;2023-02-02T01:01:36;18.30;;;8.38;;
64457;SDS011;58438;51.200;7.252;2023-02-02T01:04:26;20.92;;;8.55;;
64457;SDS011;58438;51.200;7.252;2023-02-02T01:07:13;17.58;;;6.82;;
64457;SDS011;58438;51.200;7.252;2023-02-02T01:10:02;17.63;;;7.75;;
64457;SDS011;58438;51.200;7.252;2023-02-02T01:12:53;8.98;;;5.40;;
64457;SDS011;58438;51.200;7.252;2023-02-02T01:15:43;17.35;;;6.43;;
64457;SDS011;58438;51.200;7.252;2023-02-02T01:18:33;15.65;;;7.00;;
64457;SDS011;58438;51.200;7.252;2023-02-02T01:21:25;12.07;;;5.43;;
64457;SDS011;58438;51.200;7.252;2023-02-02T01:24:15;10.77;;;4.50;;
64457;SDS011;58438;51.200;7.252;2023-02-02T01:27:06;11.07;;;5.38;;
64457;SDS011;58438;51.200;7.252;2023-02-02T01:29:56;17.77;;;4.75;;
64457;SDS011;58438;51.200;7.252;2023-02-02T01:32:47;13.10;;;6.20;;
64457;SDS011;58438;51.200;7.252;2023-02-02T01:35:43;12.73;;;5.95;;
64457;SDS011;58438;51.200;7.252;2023-02-02T01:38:36;17.38;;;7.45;;
64457;SDS011;58438;51.200;7.252;2023-02-02T01:41:27;15.27;;;6.75;;
64457;SDS011;58438;51.200;7.252;2023-02-02T01:47:46;16.38;;;6.05;;
64457;SDS011;58438;51.200;7.252;2023-02-02T01:50:39;15.10;;;7.32;;
64457;SDS011;58438;51.200;7.252;2023-02-02T01:53:30;13.55;;;6.38;;
64457;SDS011;58438;51.200;7.252;2023-02-02T01:56:24;24.35;;;8.02;;
64457;SDS011;58438;51.200;7.252;2023-02-02T01:59:12;19.70;;;7.70;;
64457;SDS011;58438;51.200;7.252;2023-02-02T02:02:01;24.63;;;8.05;;
64457;SDS011;58438;51.200;7.252;2023-02-02T02:04:49;20.58;;;8.32;;
64457;SDS011;58438;51.200;7.252;2023-02-02T02:07:37;16.23;;;7.63;;
64457;SDS011;58438;51.200;7.252;2023-02-02T02:10:26;19.60;;;6.55;;
64457;SDS011;58438;51.200;7.252;2023-02-02T02:13:15;20.35;;;7.88;;
64457;SDS011;58438;51.200;7.252;2023-02-02T02:16:05;19.52;;;6.75;;
64457;SDS011;58438;51.200;7.252;2023-02-02T02:19:09;19.05;;;6.93;;
64457;SDS011;58438;51.200;7.252;2023-02-02T02:22:06;23.17;;;7.47;;
64457;SDS011;58438;51.200;7.252;2023-02-02T02:25:25;20.80;;;7.88;;
64457;SDS011;58438;51.200;7.252;2023-02-02T02:29:06;19.30;;;7.15;;
64457;SDS011;58438;51.200;7.252;2023-02-02T02:32:12;30.17;;;7.95;;
64457;SDS011;58438;51.200;7.252;2023-02-02T02:35:08;19.33;;;6.90;;
64457;SDS011;58438;51.200;7.252;2023-02-02T02:38:04;22.88;;;7.93;;
64457;SDS011;58438;51.200;7.252;2023-02-02T02:40:58;19.60;;;7.20;;
64457;SDS011;58438;51.200;7.252;2023-02-02T02:43:51;19.85;;;8.18;;
64457;SDS011;58438;51.200;7.252;2023-02-02T02:46:45;26.75;;;6.97;;
64457;SDS011;58438;51.200;7.252;2023-02-02T02:49:41;21.90;;;7.03;;
64457;SDS011;58438;51.200;7.252;2023-02-02T02:52:29;21.15;;;7.47;;
64457;SDS011;58438;51.200;7.252;2023-02-02T02:55:18;23.33;;;8.05;;
64457;SDS011;58438;51.200;7.252;2023-02-02T02:58:06;20.88;;;6.38;;
64457;SDS011;58438;51.200;7.252;2023-02-02T03:00:58;13.25;;;7.28;;
64457;SDS011;58438;51.200;7.252;2023-02-02T03:03:58;20.45;;;7.93;;
64457;SDS011;58438;51.200;7.252;2023-02-02T03:06:50;15.90;;;7.15;;
64457;SDS011;58438;51.200;7.252;2023-02-02T03:09:41;19.80;;;7.33;;
64457;SDS011;58438;51.200;7.252;2023-02-02T03:12:32;15.00;;;6.38;;
64457;SDS011;58438;51.200;7.252;2023-02-02T03:15:20;22.13;;;7.50;;
64457;SDS011;58438;51.200;7.252;2023-02-02T03:18:08;18.60;;;7.72;;
64457;SDS011;58438;51.200;7.252;2023-02-02T03:20:56;17.80;;;8.25;;
64457;SDS011;58438;51.200;7.252;2023-02-02T03:23:45;22.73;;;8.88;;
64457;SDS011;58438;51.200;7.252;2023-02-02T03:26:33;24.02;;;10.55;;
64457;SDS011;58438;51.200;7.252;2023-02-02T03:29:21;36.70;;;12.90;;
64457;SDS011;58438;51.200;7.252;2023-02-02T03:32:09;22.65;;;10.73;;
64457;SDS011;58438;51.200;7.252;2023-02-02T03:34:56;34.95;;;13.15;;
64457;SDS011;58438;51.200;7.252;2023-02-02T03:37:44;43.83;;;14.07;;
64457;SDS011;58438;51.200;7.252;2023-02-02T03:40:33;36.47;;;14.82;;
64457;SDS011;58438;51.200;7.252;2023-02-02T03:43:21;29.40;;;13.95;;
64457;SDS011;58438;51.200;7.252;2023-02-02T03:46:09;28.42;;;12.40;;
64457;SDS011;58438;51.200;7.252;2023-02-02T03:48:57;32.20;;;13.52;;
64457;SDS011;58438;51.200;7.252;2023-02-02T03:51:45;29.27;;;13.80;;
64457;SDS011;58438;51.200;7.252;2023-02-02T03:54:32;36.53;;;14.23;;
64457;SDS011;58438;51.200;7.252;2023-02-02T03:57:21;35.42;;;14.63;;
64457;SDS011;58438;51.200;7.252;2023-02-02T04:00:09;39.90;;;15.82;;
64457;SDS011;58438;51.200;7.252;2023-02-02T04:02:58;38.92;;;13.50;;
64457;SDS011;58438;51.200;7.252;2023-02-02T04:05:47;34.13;;;14.73;;
64457;SDS011;58438;51.200;7.252;2023-02-02T04:08:36;35.42;;;13.25;;
64457;SDS011;58438;51.200;7.252;2023-02-02T04:11:24;36.30;;;14.07;;
64457;SDS011;58438;51.200;7.252;2023-02-02T04:14:13;35.90;;;13.75;;
64457;SDS011;58438;51.200;7.252;2023-02-02T04:17:00;34.25;;;14.40;;
64457;SDS011;58438;51.200;7.252;2023-02-02T04:19:48;32.53;;;14.18;;
64457;SDS011;58438;51.200;7.252;2023-02-02T04:22:38;22.25;;;10.23;;
64457;SDS011;58438;51.200;7.252;2023-02-02T04:25:25;34.40;;;13.65;;
64457;SDS011;58438;51.200;7.252;2023-02-02T04:28:13;35.85;;;14.38;;
64457;SDS011;58438;51.200;7.252;2023-02-02T04:31:02;35.25;;;15.35;;
64457;SDS011;58438;51.200;7.252;2023-02-02T04:33:50;43.13;;;14.63;;
64457;SDS011;58438;51.200;7.252;2023-02-02T04:36:37;31.20;;;12.57;;
64457;SDS011;58438;51.200;7.252;2023-02-02T04:39:25;31.55;;;14.00;;
64457;SDS011;58438;51.200;7.252;2023-02-02T04:42:12;31.70;;;13.82;;
64457;SDS011;58438;51.200;7.252;2023-02-02T04:45:00;41.05;;;16.08;;
64457;SDS011;58438;51.200;7.252;2023-02-02T04:47:49;32.58;;;12.93;;
64457;SDS011;58438;51.200;7.252;2023-02-02T04:50:37;34.25;;;12.50;;
64457;SDS011;58438;51.200;7.252;2023-02-02T04:53:24;43.05;;;16.83;;
64457;SDS011;58438;51.200;7.252;2023-02-02T04:56:13;44.17;;;15.55;;
64457;SDS011;58438;51.200;7.252;2023-02-02T04:59:01;41.50;;;16.23;;
64457;SDS011;58438;51.200;7.252;2023-02-02T05:01:49;36.38;;;14.73;;
64457;SDS011;58438;51.200;7.252;2023-02-02T05:04:38;40.60;;;15.48;;
64457;SDS011;58438;51.200;7.252;2023-02-02T05:07:25;42.05;;;14.38;;
64457;SDS011;58438;51.200;7.252;2023-02-02T05:10:13;27.63;;;13.93;;
64457;SDS011;58438;51.200;7.252;2023-02-02T05:13:00;24.58;;;12.23;;
64457;SDS011;58438;51.200;7.252;2023-02-02T05:15:48;43.28;;;15.95;;
64457;SDS011;58438;51.200;7.252;2023-02-02T05:18:35;44.78;;;15.45;;
64457;SDS011;58438;51.200;7.252;2023-02-02T05:21:24;38.38;;;13.73;;
64457;SDS011;58438;51.200;7.252;2023-02-02T05:24:12;34.88;;;14.73;;
64457;SDS011;58438;51.200;7.252;2023-02-02T05:26:59;40.70;;;15.65;;
64457;SDS011;58438;51.200;7.252;2023-02-02T05:29:47;35.88;;;14.60;;
64457;SDS011;58438;51.200;7.252;2023-02-02T05:32:35;35.55;;;14.55;;
64457;SDS011;58438;51.200;7.252;2023-02-02T05:35:23;35.92;;;14.63;;
64457;SDS011;58438;51.200;7.252;2023-02-02T05:38:12;30.63;;;12.52;;
64457;SDS011;58438;51.200;7.252;2023-02-02T05:41:00;32.17;;;12.73;;
64457;SDS011;58438;51.200;7.252;2023-02-02T05:43:48;23.50;;;8.98;;
64457;SDS011;58438;51.200;7.252;2023-02-02T05:46:36;37.45;;;12.25;;
64457;SDS011;58438;51.200;7.252;2023-02-02T05:49:23;33.28;;;13.27;;
64457;SDS011;58438;51.200;7.252;2023-02-02T05:52:12;30.95;;;12.30;;
64457;SDS011;58438;51.200;7.252;2023-02-02T05:55:04;33.47;;;12.70;;
64457;SDS011;58438;51.200;7.252;2023-02-02T05:57:52;36.28;;;13.77;;
64457;SDS011;58438;51.200;7.252;2023-02-02T06:00:39;45.50;;;14.60;;
64457;SDS011;58438;51.200;7.252;2023-02-02T06:03:26;33.47;;;14.10;;
64457;SDS011;58438;51.200;7.252;2023-02-02T06:06:14;33.72;;;14.93;;
64457;SDS011;58438;51.200;7.252;2023-02-02T06:09:02;41.53;;;17.65;;
64457;SDS011;58438;51.200;7.252;2023-02-02T06:11:50;39.85;;;14.48;;
64457;SDS011;58438;51.200;7.252;2023-02-02T06:14:38;55.78;;;17.38;;
64457;SDS011;58438;51.200;7.252;2023-02-02T06:17:25;46.53;;;15.02;;
64457;SDS011;58438;51.200;7.252;2023-02-02T06:20:13;34.08;;;13.63;;
64457;SDS011;58438;51.200;7.252;2023-02-02T06:23:00;39.17;;;14.38;;
64457;SDS011;58438;51.200;7.252;2023-02-02T06:25:48;43.50;;;16.00;;
64457;SDS011;58438;51.200;7.252;2023-02-02T06:28:37;41.05;;;16.10;;
64457;SDS011;58438;51.200;7.252;2023-02-02T06:31:25;44.22;;;16.02;;
64457;SDS011;58438;51.200;7.252;2023-02-02T06:34:12;40.42;;;15.75;;
64457;SDS011;58438;51.200;7.252;2023-02-02T06:37:00;39.47;;;18.58;;
64457;SDS011;58438;51.200;7.252;2023-02-02T06:39:48;35.53;;;14.40;;
64457;SDS011;58438;51.200;7.252;2023-02-02T06:42:35;39.97;;;15.63;;
64457;SDS011;58438;51.200;7.252;2023-02-02T06:45:24;46.55;;;15.07;;
64457;SDS011;58438;51.200;7.252;2023-02-02T06:48:13;34.42;;;13.82;;
64457;SDS011;58438;51.200;7.252;2023-02-02T06:51:00;26.65;;;12.50;;
64457;SDS011;58438;51.200;7.252;2023-02-02T06:53:48;35.85;;;14.13;;
64457;SDS011;58438;51.200;7.252;2023-02-02T06:56:36;42.65;;;15.10;;
64457;SDS011;58438;51.200;7.252;2023-02-02T06:59:23;41.53;;;14.55;;
64457;SDS011;58438;51.200;7.252;2023-02-02T07:02:12;31.27;;;12.02;;
64457;SDS011;58438;51.200;7.252;2023-02-02T07:05:00;35.65;;;15.57;;
64457;SDS011;58438;51.200;7.252;2023-02-02T07:07:48;33.30;;;13.38;;
64457;SDS011;58438;51.200;7.252;2023-02-02T07:10:36;35.75;;;14.20;;
64457;SDS011;58438;51.200;7.252;2023-02-02T07:13:44;40.88;;;14.38;;
64457;SDS011;58438;51.200;7.252;2023-02-02T07:16:32;37.92;;;15.80;;
64457;SDS011;58438;51.200;7.252;2023-02-02T07:19:21;35.80;;;13.93;;
64457;SDS011;58438;51.200;7.252;2023-02-02T07:22:08;42.55;;;14.40;;
64457;SDS011;58438;51.200;7.252;2023-02-02T07:24:56;36.65;;;15.00;;
64457;SDS011;58438;51.200;7.252;2023-02-02T07:27:43;39.15;;;14.95;;
64457;SDS011;58438;51.200;7.252;2023-02-02T07:30:33;36.95;;;13.50;;
64457;SDS011;58438;51.200;7.252;2023-02-02T07:33:20;39.03;;;15.70;;
64457;SDS011;58438;51.200;7.252;2023-02-02T07:36:09;39.63;;;15.38;;
64457;SDS011;58438;51.200;7.252;2023-02-02T07:38:57;32.22;;;13.65;;
64457;SDS011;58438;51.200;7.252;2023-02-02T07:41:48;46.10;;;16.05;;
64457;SDS011;58438;51.200;7.252;2023-02-02T07:44:36;40.67;;;13.73;;
64457;SDS011;58438;51.200;7.252;2023-02-02T07:47:24;38.97;;;13.75;;
64457;SDS011;58438;51.200;7.252;2023-02-02T07:50:11;40.38;;;14.18;;
64457;SDS011;58438;51.200;7.252;2023-02-02T07:53:00;32.67;;;13.00;;
64457;SDS011;58438;51.200;7.252;2023-02-02T07:55:48;35.95;;;15.23;;
64457;SDS011;58438;51.200;7.252;2023-02-02T07:58:35;28.45;;;12.13;;
64457;SDS011;58438;51.200;7.252;2023-02-02T08:01:23;34.85;;;14.25;;
64457;SDS011;58438;51.200;7.252;2023-02-02T08:04:11;38.72;;;13.70;;
64457;SDS011;58438;51.200;7.252;2023-02-02T08:06:59;30.13;;;13.32;;
64457;SDS011;58438;51.200;7.252;2023-02-02T08:09:48;23.50;;;12.10;;
64457;SDS011;58438;51.200;7.252;2023-02-02T08:12:35;26.02;;;11.27;;
64457;SDS011;58438;51.200;7.252;2023-02-02T08:15:23;31.45;;;13.20;;
64457;SDS011;58438;51.200;7.252;2023-02-02T08:18:11;32.15;;;14.02;;
64457;SDS011;58438;51.200;7.252;2023-02-02T08:20:58;27.90;;;11.68;;
64457;SDS011;58438;51.200;7.252;2023-02-02T08:23:46;29.05;;;12.65;;
64457;SDS011;58438;51.200;7.252;2023-02-02T08:26:36;33.78;;;13.32;;
64457;SDS011;58438;51.200;7.252;2023-02-02T08:29:23;30.15;;;12.25;;
64457;SDS011;58438;51.200;7.252;2023-02-02T08:32:11;41.80;;;14.13;;
64457;SDS011;58438;51.200;7.252;2023-02-02T08:34:58;36.20;;;13.93;;
64457;SDS011;58438;51.200;7.252;2023-02-02T08:37:46;30.00;;;13.27;;
64457;SDS011;58438;51.200;7.252;2023-02-02T08:40:34;38.45;;;12.95;;
64457;SDS011;58438;51.200;7.252;2023-02-02T08:43:23;26.95;;;12.00;;
64457;SDS011;58438;51.200;7.252;2023-02-02T08:46:11;29.02;;;12.23;;
64457;SDS011;58438;51.200;7.252;2023-02-02T08:49:01;31.77;;;12.75;;
64457;SDS011;58438;51.200;7.252;2023-02-02T08:51:48;27.48;;;11.95;;
64457;SDS011;58438;51.200;7.252;2023-02-02T08:54:36;29.38;;;11.57;;
64457;SDS011;58438;51.200;7.252;2023-02-02T08:57:23;24.88;;;11.75;;
64457;SDS011;58438;51.200;7.252;2023-02-02T09:00:13;27.90;;;12.48;;
64457;SDS011;58438;51.200;7.252;2023-02-02T09:03:00;32.38;;;12.25;;
64457;SDS011;58438;51.200;7.252;2023-02-02T09:05:47;23.35;;;11.27;;
64457;SDS011;58438;51.200;7.252;2023-02-02T09:08:35;24.90;;;10.85;;
64457;SDS011;58438;51.200;7.252;2023-02-02T09:11:22;29.33;;;10.60;;
64457;SDS011;58438;51.200;7.252;2023-02-02T09:14:10;27.08;;;10.95;;
64457;SDS011;58438;51.200;7.252;2023-02-02T09:17:01;28.42;;;12.30;;
64457;SDS011;58438;51.200;7.252;2023-02-02T09:19:48;23.00;;;10.10;;
64457;SDS011;58438;51.200;7.252;2023-02-02T09:22:35;23.67;;;10.60;;
64457;SDS011;58438;51.200;7.252;2023-02-02T09:25:23;27.50;;;11.52;;
64457;SDS011;58438;51.200;7.252;2023-02-02T09:28:12;22.60;;;10.43;;
64457;SDS011;58438;51.200;7.252;2023-02-02T09:31:00;31.50;;;12.60;;
64457;SDS011;58438;51.200;7.252;2023-02-02T09:33:48;20.65;;;9.18;;
64457;SDS011;58438;51.200;7.252;2023-02-02T09:36:36;28.88;;;10.98;;
64457;SDS011;58438;51.200;7.252;2023-02-02T09:39:24;26.40;;;12.07;;
64457;SDS011;58438;51.200;7.252;2023-02-02T09:42:19;26.45;;;12.23;;
64457;SDS011;58438;51.200;7.252;2023-02-02T09:45:16;31.83;;;11.55;;
64457;SDS011;58438;51.200;7.252;2023-02-02T09:48:14;24.08;;;10.27;;
64457;SDS011;58438;51.200;7.252;2023-02-02T09:51:12;30.17;;;10.10;;
64457;SDS011;58438;51.200;7.252;2023-02-02T09:54:05;23.02;;;10.38;;
64457;SDS011;58438;51.200;7.252;2023-02-02T09:57:00;21.10;;;8.65;;
64457;SDS011;58438;51.200;7.252;2023-02-02T09:59:54;19.85;;;9.07;;
64457;SDS011;58438;51.200;7.252;2023-02-02T10:02:43;20.20;;;8.35;;
64457;SDS011;58438;51.200;7.252;2023-02-02T10:05:39;19.02;;;8.48;;
64457;SDS011;58438;51.200;7.252;2023-02-02T10:08:32;24.55;;;10.05;;
64457;SDS011;58438;51.200;7.252;2023-02-02T10:11:25;18.88;;;9.85;;
64457;SDS011;58438;51.200;7.252;2023-02-02T10:14:14;31.30;;;12.63;;
64457;SDS011;58438;51.200;7.252;2023-02-02T10:17:22;30.15;;;12.18;;
64457;SDS011;58438;51.200;7.252;2023-02-02T10:20:17;41.00;;;13.68;;
64457;SDS011;58438;51.200;7.252;2023-02-02T10:23:16;33.45;;;14.07;;
64457;SDS011;58438;51.200;7.252;2023-02-02T10:26:13;40.97;;;15.00;;
64457;SDS011;58438;51.200;7.252;2023-02-02T10:29:12;34.88;;;15.02;;
64457;SDS011;58438;51.200;7.252;2023-02-02T10:32:05;45.67;;;15.95;;
64457;SDS011;58438;51.200;7.252;2023-02-02T10:35:02;36.67;;;14.75;;
64457;SDS011;58438;51.200;7.252;2023-02-02T10:38:04;38.38;;;14.88;;
64457;SDS011;58438;51.200;7.252;2023-02-02T10:41:05;33.92;;;15.55;;
64457;SDS011;58438;51.200;7.252;2023-02-02T10:44:05;38.00;;;15.07;;
64457;SDS011;58438;51.200;7.252;2023-02-02T10:47:03;42.05;;;14.57;;
64457;SDS011;58438;51.200;7.252;2023-02-02T10:49:53;33.88;;;13.63;;
64457;SDS011;58438;51.200;7.252;2023-02-02T10:52:48;37.33;;;14.75;;
64457;SDS011;58438;51.200;7.252;2023-02-02T10:55:41;45.58;;;17.35;;
64457;SDS011;58438;51.200;7.252;2023-02-02T10:58:34;46.13;;;14.88;;
64457;SDS011;58438;51.200;7.252;2023-02-02T11:01:28;42.88;;;15.68;;
64457;SDS011;58438;51.200;7.252;2023-02-02T11:04:16;45.42;;;15.25;;
64457;SDS011;58438;51.200;7.252;2023-02-02T11:07:23;44.10;;;16.40;;
64457;SDS011;58438;51.200;7.252;2023-02-02T11:10:10;36.45;;;15.75;;
64457;SDS011;58438;51.200;7.252;2023-02-02T11:12:58;34.40;;;16.17;;
64457;SDS011;58438;51.200;7.252;2023-02-02T11:15:47;38.75;;;15.20;;
64457;SDS011;58438;51.200;7.252;2023-02-02T11:18:35;38.28;;;15.98;;
64457;SDS011;58438;51.200;7.252;2023-02-02T11:21:23;37.67;;;15.15;;
64457;SDS011;58438;51.200;7.252;2023-02-02T11:24:16;40.75;;;16.55;;
64457;SDS011;58438;51.200;7.252;2023-02-02T11:27:11;42.03;;;16.73;;
64457;SDS011;58438;51.200;7.252;2023-02-02T11:30:09;43.65;;;18.20;;
64457;SDS011;58438;51.200;7.252;2023-02-02T11:33:18;37.92;;;16.38;;
64457;SDS011;58438;51.200;7.252;2023-02-02T11:36:18;37.42;;;18.08;;
64457;SDS011;58438;51.200;7.252;2023-02-02T11:39:13;40.40;;;16.23;;
64457;SDS011;58438;51.200;7.252;2023-02-02T11:42:03;50.20;;;15.38;;
64457;SDS011;58438;51.200;7.252;2023-02-02T11:44:52;48.28;;;19.75;;
64457;SDS011;58438;51.200;7.252;2023-02-02T11:47:43;40.50;;;16.02;;
64457;SDS011;58438;51.200;7.252;2023-02-02T11:50:31;43.33;;;17.25;;
64457;SDS011;58438;51.200;7.252;2023-02-02T11:53:23;42.28;;;17.17;;
64457;SDS011;58438;51.200;7.252;2023-02-02T11:56:16;38.30;;;16.00;;
64457;SDS011;58438;51.200;7.252;2023-02-02T11:59:08;31.20;;;15.38;;
64457;SDS011;58438;51.200;7.252;2023-02-02T12:02:21;37.70;;;15.75;;
64457;SDS011;58438;51.200;7.252;2023-02-02T12:05:12;36.33;;;15.07;;
64457;SDS011;58438;51.200;7.252;2023-02-02T12:08:17;33.78;;;14.20;;
64457;SDS011;58438;51.200;7.252;2023-02-02T12:11:07;43.47;;;16.17;;
64457;SDS011;58438;51.200;7.252;2023-02-02T12:14:04;37.15;;;14.65;;
64457;SDS011;58438;51.200;7.252;2023-02-02T12:17:12;42.30;;;16.50;;
64457;SDS011;58438;51.200;7.252;2023-02-02T12:20:12;40.88;;;14.43;;
64457;SDS011;58438;51.200;7.252;2023-02-02T12:23:05;36.20;;;13.95;;
64457;SDS011;58438;51.200;7.252;2023-02-02T12:26:04;35.08;;;14.90;;
64457;SDS011;58438;51.200;7.252;2023-02-02T12:29:05;39.13;;;15.60;;
64457;SDS011;58438;51.200;7.252;2023-02-02T12:32:10;39.75;;;15.63;;
64457;SDS011;58438;51.200;7.252;2023-02-02T12:35:14;39.45;;;16.42;;
64457;SDS011;58438;51.200;7.252;2023-02-02T12:38:14;33.22;;;13.18;;
64457;SDS011;58438;51.200;7.252;2023-02-02T12:41:20;35.67;;;14.93;;
64457;SDS011;58438;51.200;7.252;2023-02-02T12:44:15;36.72;;;13.82;;
64457;SDS011;58438;51.200;7.252;2023-02-02T12:47:08;38.72;;;15.00;;
64457;SDS011;58438;51.200;7.252;2023-02-02T12:50:07;35.78;;;15.68;;
64457;SDS011;58438;51.200;7.252;2023-02-02T12:53:12;34.42;;;14.75;;
64457;SDS011;58438;51.200;7.252;2023-02-02T12:56:13;34.88;;;14.05;;
64457;SDS011;58438;51.200;7.252;2023-02-02T12:59:10;32.03;;;13.05;;
64457;SDS011;58438;51.200;7.252;2023-02-02T13:02:11;34.75;;;14.68;;
64457;SDS011;58438;51.200;7.252;2023-02-02T13:05:16;30.85;;;14.38;;
64457;SDS011;58438;51.200;7.252;2023-02-02T13:08:15;31.15;;;13.48;;
64457;SDS011;58438;51.200;7.252;2023-02-02T13:11:07;34.33;;;13.65;;
64457;SDS011;58438;51.200;7.252;2023-02-02T13:14:16;31.92;;;13.15;;
64457;SDS011;58438;51.200;7.252;2023-02-02T13:17:10;25.35;;;11.95;;
64457;SDS011;58438;51.200;7.252;2023-02-02T13:19:59;34.05;;;13.85;;
64457;SDS011;58438;51.200;7.252;2023-02-02T13:22:52;24.67;;;12.00;;
64457;SDS011;58438;51.200;7.252;2023-02-02T13:25:45;29.67;;;11.68;;
64457;SDS011;58438;51.200;7.252;2023-02-02T13:28:36;29.08;;;11.63;;
64457;SDS011;58438;51.200;7.252;2023-02-02T13:31:29;28.35;;;12.10;;
64457;SDS011;58438;51.200;7.252;2023-02-02T13:34:22;30.42;;;12.35;;
64457;SDS011;58438;51.200;7.252;2023-02-02T13:37:13;25.50;;;10.82;;
64457;SDS011;58438;51.200;7.252;2023-02-02T13:40:13;31.02;;;11.65;;
64457;SDS011;58438;51.200;7.252;2023-02-02T13:43:04;22.23;;;10.93;;
64457;SDS011;58438;51.200;7.252;2023-02-02T13:46:05;27.35;;;10.80;;
64457;SDS011;58438;51.200;7.252;2023-02-02T13:49:04;26.77;;;10.95;;
64457;SDS011;58438;51.200;7.252;2023-02-02T13:55:00;26.80;;;10.10;;
64457;SDS011;58438;51.200;7.252;2023-02-02T13:58:11;23.88;;;13.00;;
64457;SDS011;58438;51.200;7.252;2023-02-02T14:01:08;24.98;;;10.52;;
64457;SDS011;58438;51.200;7.252;2023-02-02T14:03:57;34.80;;;12.93;;
64457;SDS011;58438;51.200;7.252;2023-02-02T14:06:55;33.58;;;13.57;;
64457;SDS011;58438;51.200;7.252;2023-02-02T14:09:45;27.48;;;14.23;;
64457;SDS011;58438;51.200;7.252;2023-02-02T14:12:35;28.98;;;12.23;;
64457;SDS011;58438;51.200;7.252;2023-02-02T14:15:35;31.13;;;13.18;;
64457;SDS011;58438;51.200;7.252;2023-02-02T14:22:01;35.67;;;13.93;;
64457;SDS011;58438;51.200;7.252;2023-02-02T14:24:50;36.22;;;14.82;;
64457;SDS011;58438;51.200;7.252;2023-02-02T14:27:39;37.17;;;14.52;;
64457;SDS011;58438;51.200;7.252;2023-02-02T14:30:41;34.25;;;14.13;;
64457;SDS011;58438;51.200;7.252;2023-02-02T14:33:58;41.88;;;14.82;;
64457;SDS011;58438;51.200;7.252;2023-02-02T14:37:11;38.33;;;15.05;;
64457;SDS011;58438;51.200;7.252;2023-02-02T14:40:25;38.95;;;15.10;;
64457;SDS011;58438;51.200;7.252;2023-02-02T14:43:26;34.42;;;14.63;;
64457;SDS011;58438;51.200;7.252;2023-02-02T14:46:31;35.72;;;14.05;;
64457;SDS011;58438;51.200;7.252;2023-02-02T14:49:21;41.15;;;16.00;;
64457;SDS011;58438;51.200;7.252;2023-02-02T14:52:18;35.55;;;15.75;;
64457;SDS011;58438;51.200;7.252;2023-02-02T14:55:15;31.67;;;13.05;;
64457;SDS011;58438;51.200;7.252;2023-02-02T14:58:04;40.03;;;16.08;;
64457;SDS011;58438;51.200;7.252;2023-02-02T15:00:54;45.10;;;16.70;;
64457;SDS011;58438;51.200;7.252;2023-02-02T15:03:47;43.72;;;18.40;;
64457;SDS011;58438;51.200;7.252;2023-02-02T15:06:38;43.72;;;16.65;;
64457;SDS011;58438;51.200;7.252;2023-02-02T15:09:38;37.53;;;15.30;;
64457;SDS011;58438;51.200;7.252;2023-02-02T15:12:28;46.75;;;17.15;;
64457;SDS011;58438;51.200;7.252;2023-02-02T15:15:19;46.67;;;18.60;;
64457;SDS011;58438;51.200;7.252;2023-02-02T15:18:10;43.40;;;16.15;;
64457;SDS011;58438;51.200;7.252;2023-02-02T15:21:01;41.83;;;17.48;;
64457;SDS011;58438;51.200;7.252;2023-02-02T15:23:52;42.78;;;16.23;;
64457;SDS011;58438;51.200;7.252;2023-02-02T15:26:42;36.97;;;15.40;;
64457;SDS011;58438;51.200;7.252;2023-02-02T15:29:36;35.17;;;13.60;;
64457;SDS011;58438;51.200;7.252;2023-02-02T15:32:27;43.70;;;17.20;;
64457;SDS011;58438;51.200;7.252;2023-02-02T15:35:17;38.53;;;16.10;;
64457;SDS011;58438;51.200;7.252;2023-02-02T15:38:11;32.67;;;14.82;;
64457;SDS011;58438;51.200;7.252;2023-02-02T15:41:04;39.75;;;14.73;;
64457;SDS011;58438;51.200;7.252;2023-02-02T15:43:54;41.03;;;14.85;;
64457;SDS011;58438;51.200;7.252;2023-02-02T15:46:41;44.33;;;15.55;;
64457;SDS011;58438;51.200;7.252;2023-02-02T15:49:30;41.22;;;15.30;;
64457;SDS011;58438;51.200;7.252;2023-02-02T15:52:22;31.77;;;13.55;;
64457;SDS011;58438;51.200;7.252;2023-02-02T15:55:17;38.40;;;16.15;;
64457;SDS011;58438;51.200;7.252;2023-02-02T15:58:19;41.95;;;15.38;;
64457;SDS011;58438;51.200;7.252;2023-02-02T16:01:15;40.70;;;15.65;;
64457;SDS011;58438;51.200;7.252;2023-02-02T16:04:10;41.70;;;16.00;;
64457;SDS011;58438;51.200;7.252;2023-02-02T16:07:02;40.75;;;17.23;;
64457;SDS011;58438;51.200;7.252;2023-02-02T16:09:52;36.83;;;16.10;;
64457;SDS011;58438;51.200;7.252;2023-02-02T16:12:40;41.92;;;16.10;;
64457;SDS011;58438;51.200;7.252;2023-02-02T16:15:28;50.15;;;17.75;;
64457;SDS011;58438;51.200;7.252;2023-02-02T16:18:18;33.22;;;16.77;;
64457;SDS011;58438;51.200;7.252;2023-02-02T16:21:10;40.22;;;18.13;;
64457;SDS011;58438;51.200;7.252;2023-02-02T16:24:06;36.60;;;15.50;;
64457;SDS011;58438;51.200;7.252;2023-02-02T16:26:58;36.40;;;16.00;;
64457;SDS011;58438;51.200;7.252;2023-02-02T16:29:48;46.42;;;17.08;;
64457;SDS011;58438;51.200;7.252;2023-02-02T16:32:36;37.00;;;15.75;;
64457;SDS011;58438;51.200;7.252;2023-02-02T16:35:31;39.38;;;15.30;;
64457;SDS011;58438;51.200;7.252;2023-02-02T16:38:22;38.97;;;13.63;;
64457;SDS011;58438;51.200;7.252;2023-02-02T16:41:11;37.90;;;14.10;;
64457;SDS011;58438;51.200;7.252;2023-02-02T16:47:30;34.13;;;14.65;;
64457;SDS011;58438;51.200;7.252;2023-02-02T16:50:27;42.53;;;15.98;;
64457;SDS011;58438;51.200;7.252;2023-02-02T16:53:19;34.13;;;14.43;;
64457;SDS011;58438;51.200;7.252;2023-02-02T16:56:10;31.80;;;12.02;;
64457;SDS011;58438;51.200;7.252;2023-02-02T16:59:06;33.75;;;12.68;;
64457;SDS011;58438;51.200;7.252;2023-02-02T17:02:03;30.23;;;12.80;;
64457;SDS011;58438;51.200;7.252;2023-02-02T17:05:02;33.78;;;12.70;;